Portada
METAR-TAF:

METAR-TAF

Aeropuertos :

Agen, Francia

latitud: 44-11N, longitud: 000-36E, altitud: 61 m

Observación

El informe se hizo hace 14 minutos, a las 09:00 UTC
Viento 5 kt del sureste, variando entre este y sur-suroeste
Temperatura 18°C
Humedad 56%
Presión 1015 hPa
Visibilidad 10 km o más
sin nubes por debajo de 1500 m y sin presencia de cumulonimbus.

METAR: LFBA 240900Z AUTO 14005KT 090V210 CAVOK 18/09 Q1015 NOSIG

Hora: 11:14 (09:14 UTC)

Pronóstico

El informe se hizo hace 1 hora y 14 minutos, a las 08:00 UTC
Pronóstico válido del 24 a las 09 UTC al 24 a las 18 UTC
Viento 2 kt con dirección variable
Visibilidad 10 km o más
sin nubes por debajo de 1500 m y sin presencia de cumulonimbus.
Temporalmente
del 24 a las 09 UTC al 24 a las 12 UTC
Viento 6 kt del sur-sureste

TAF: LFBA 240800Z 2409/2418 VRB02KT CAVOK TEMPO 2409/2412 16006KT

Observaciones y pronósticos meteorológicos de más de 4000 aeropuertos (mensajes METAR y TAF).

Los puntos amarillos y rojos representan las estaciones disponibles.

Ponga el ratón en el punto deseado para ver el nombre de la estación.

Haga clic para ver las observaciones y los pronósticos meteorológicos.

Para cambiar el mapa : haga clic en los botones verdes con una cruz de color negro para hacer un zoom, en el botón verde con un guión para alejar o en las flechas verdes para mapas adyacentes.


METAR-TAF: